Overview Statistics Trail Chart Weather Telemetry Raw packets
 

This is the latest recevied weather packets stored in our database for station/object KD4PMP. If no packets are shown the sender has not sent any weather packets the latest 10 day(s).

<< 5 6 7 8 9 10 11 >>
Time Temp. Humidity Pressure Rain* Wind** Luminosity Snow
1788529887 30° C 75% 1014.8 hPa 0 mm - - -
1788529281 29.44° C 78% 1014.8 hPa 0 mm - - -
1788528674 28.89° C 78% 1014.8 hPa 0 mm - - -
1788528067 28.33° C 79% 1014.7 hPa 0 mm - - -
1788527460 27.78° C 80% 1014.6 hPa 0 mm - - -
1788526854 27.22° C 84% 1014.6 hPa 0 mm - - -
1788526248 26.67° C 86% 1014.6 hPa 0 mm - - -
1788525641 25.56° C 89% 1014.7 hPa 0 mm - - -
1788525035 25° C 91% 1014.7 hPa 0 mm - - -
1788524428 24.44° C 93% 1014.7 hPa 0 mm - - -
1788523822 24.44° C 93% 1014.4 hPa 0 mm - - -
1788523216 24.44° C 92% 1014.4 hPa 0 mm - - -
1788522609 24.44° C 92% 1014.3 hPa 0 mm - - -
1788522003 24.44° C 91% 1014.2 hPa 0 mm - - -
1788521396 24.44° C 92% 1014 hPa 0 mm - - -
1788520790 24.44° C 91% 1013.8 hPa 0 mm - - -
1788520184 24.44° C 91% 1013.8 hPa 0 mm - - -
1788519577 24.44° C 91% 1013.7 hPa 0 mm - - -
1788518971 24.44° C 91% 1013.8 hPa 0 mm - - -
1788518364 25° C 90% 1013.7 hPa 0 mm - - -
1788517758 25° C 89% 1013.7 hPa 0 mm - - -
1788517152 25° C 90% 1013.7 hPa 0 mm - - -
1788516545 25° C 90% 1013.5 hPa 0 mm - - -
1788515939 25° C 90% 1013.4 hPa 0 mm - - -
1788515333 25° C 90% 1013.5 hPa 0 mm - - -

* Rain latest hour (hover to see other rain measurements)
** Current wind speed in m/s (hover to see current wind gust speed)